CheckWX is a tool to help pilots better visualize weather data.  It is not intended as a substitute for an official pre-flight weather briefing.

06:07:46 UTC

KLGU METAR
Logan-Cache Airport
Logan, Utah, USA
Current

17 mins ago

KLGU 140551Z AUTO 18003KT 10SM CLR 01/M02 A3019 RMK AO2 SLP219 T00111022 10117 20000 51012
Observed
Nov-14 @ 05:51 UTC
Wind
  • 180° at 3 KTS
Visibility
10 SM
Flight Rules
VFR
Cloud Levels
  • Clear skies
Temperature
C / 34°F
Dewpoint
-2°C / 28°F
Humidity
81%
Altimeter
30.19" Hg
Pressure
1022.32 hPa
Previous

1 hour ago

KLGU 140451Z AUTO 00000KT 10SM CLR 00/M03 A3018 RMK AO2 SLP223 T00001033
Observed
Nov-14 @ 04:51 UTC
Visibility
10 SM
Flight Rules
VFR
Cloud Levels
  • Clear skies
Temperature
C / 32°F
Dewpoint
-3°C / 27°F
Humidity
80%
Altimeter
30.18" Hg
Pressure
1022.02 hPa
Previous

2 hours ago

KLGU 140351Z AUTO 00000KT 10SM CLR 01/M03 A3017 RMK AO2 SLP219 T00111028
Observed
Nov-14 @ 03:51 UTC
Visibility
10 SM
Flight Rules
VFR
Cloud Levels
  • Clear skies
Temperature
C / 34°F
Dewpoint
-3°C / 27°F
Humidity
75%
Altimeter
30.17" Hg
Pressure
1021.72 hPa